createdAt,value
2018-04-24T00:00:43.533Z,74.60
2018-04-24T00:03:10.158Z,74.50
2018-04-24T00:05:36.371Z,72.80
2018-04-24T00:08:03.696Z,73.50
2018-04-24T00:10:29.841Z,73.50
2018-04-24T00:12:56.563Z,74.20
2018-04-24T00:15:22.727Z,73.20
2018-04-24T00:17:49.390Z,73.30
2018-04-24T00:20:16.254Z,74.60
2018-04-24T00:22:42.449Z,76.80
2018-04-24T00:25:08.664Z,75.20
2018-04-24T00:27:34.819Z,76.00
2018-04-24T00:30:01.363Z,77.00
2018-04-24T00:32:29.192Z,78.50
2018-04-24T00:34:57.057Z,78.10
2018-04-24T00:37:31.343Z,77.20
2018-04-24T00:39:57.480Z,77.30
2018-04-24T00:42:23.581Z,77.40
2018-04-24T00:44:49.950Z,77.50
2018-04-24T00:47:16.053Z,78.70
2018-04-24T00:49:43.139Z,79.50
2018-04-24T00:52:13.092Z,78.00
2018-04-24T00:54:42.763Z,77.20
2018-04-24T00:57:10.739Z,77.10
2018-04-24T00:59:38.356Z,77.40
2018-04-24T01:02:06.088Z,79.20
2018-04-24T01:04:32.268Z,80.60
2018-04-24T01:06:59.762Z,80.50
2018-04-24T01:09:27.648Z,81.70
2018-04-24T01:11:55.163Z,80.40
2018-04-24T01:14:22.334Z,80.40
2018-04-24T01:16:50.773Z,81.60
2018-04-24T01:19:17.970Z,81.60
2018-04-24T01:21:45.128Z,81.90
2018-04-24T01:24:11.710Z,82.40
2018-04-24T01:26:38.760Z,83.50
2018-04-24T01:29:04.928Z,82.60
2018-04-24T01:31:32.093Z,82.10
2018-04-24T01:33:59.165Z,83.10
2018-04-24T01:36:25.444Z,84.60
2018-04-24T01:38:51.521Z,84.20
2018-04-24T01:41:18.431Z,84.40
2018-04-24T01:43:44.520Z,84.40
2018-04-24T01:46:11.334Z,85.30
2018-04-24T01:48:37.488Z,85.30
2018-04-24T01:51:03.604Z,86.40
2018-04-24T01:53:29.751Z,86.60
2018-04-24T01:55:55.891Z,87.70
2018-04-24T01:58:22.300Z,87.80
2018-04-24T02:00:48.392Z,88.40
2018-04-24T02:03:14.529Z,89.90
2018-04-24T02:05:41.451Z,90.80
2018-04-24T02:08:07.549Z,90.80
2018-04-24T02:10:34.438Z,89.30
2018-04-24T02:13:00.542Z,89.20
2018-04-24T02:15:27.370Z,89.40
2018-04-24T02:17:53.558Z,89.40
2018-04-24T02:20:20.347Z,88.80
2018-04-24T02:22:46.427Z,88.80
2018-04-24T02:25:13.331Z,89.70
2018-04-24T02:27:39.403Z,89.60
2018-04-24T02:30:06.215Z,89.60
2018-04-24T02:32:32.339Z,89.50
2018-04-24T02:34:58.410Z,89.90
2018-04-24T02:37:24.490Z,89.40
2018-04-24T02:39:50.594Z,89.00
2018-04-24T02:42:16.665Z,89.60
2018-04-24T02:44:42.744Z,89.50
2018-04-24T02:47:08.860Z,88.90
2018-04-24T02:49:34.937Z,90.10
2018-04-24T02:52:01.008Z,89.40
2018-04-24T02:54:27.216Z,89.80
2018-04-24T02:56:53.296Z,92.30
2018-04-24T02:59:19.361Z,91.30
2018-04-24T03:01:45.446Z,90.40
2018-04-24T03:04:12.259Z,90.60
2018-04-24T03:06:38.346Z,90.60
2018-04-24T03:09:05.255Z,89.30
2018-04-24T03:11:31.360Z,89.20
2018-04-24T03:13:57.428Z,89.00
2018-04-24T03:16:23.579Z,87.10
2018-04-24T03:18:49.659Z,86.50
2018-04-24T03:21:15.743Z,85.80
2018-04-24T03:23:41.831Z,86.00
2018-04-24T03:26:08.638Z,87.60
2018-04-24T03:28:34.723Z,87.60
2018-04-24T03:31:00.927Z,88.30
2018-04-24T03:33:27.003Z,88.40
2018-04-24T03:35:53.071Z,89.80
2018-04-24T03:38:19.188Z,93.50
2018-04-24T03:40:45.249Z,94.60
2018-04-24T03:43:11.314Z,95.70
2018-04-24T03:45:37.427Z,96.60
2018-04-24T03:48:03.578Z,98.50
2018-04-24T03:50:29.664Z,99.30
2018-04-24T03:52:55.778Z,99.60
2018-04-24T03:55:22.635Z,99.90
2018-04-24T03:57:48.711Z,99.90
2018-04-24T04:00:14.825Z,99.90
2018-04-24T04:02:41.659Z,99.90
2018-04-24T04:05:08.065Z,99.90
2018-04-24T04:07:34.298Z,99.90
2018-04-24T04:10:00.318Z,99.90
2018-04-24T04:12:26.382Z,99.90
2018-04-24T04:14:52.481Z,99.90
2018-04-24T04:17:31.895Z,99.90
2018-04-24T04:20:10.317Z,99.90
2018-04-24T04:22:49.751Z,99.90
2018-04-24T04:25:15.824Z,99.90
2018-04-24T04:27:41.987Z,99.90
2018-04-24T04:30:08.863Z,99.90
2018-04-24T04:32:35.090Z,99.90
2018-04-24T04:35:01.254Z,99.90
2018-04-24T04:37:28.075Z,99.60
2018-04-24T04:39:54.984Z,97.30
2018-04-24T04:42:21.064Z,98.00
2018-04-24T04:44:47.920Z,94.70
2018-04-24T04:47:14.773Z,92.60
2018-04-24T04:49:41.620Z,91.00
2018-04-24T04:52:08.427Z,92.00
2018-04-24T04:54:34.555Z,92.10
2018-04-24T04:57:00.703Z,89.80
2018-04-24T04:59:26.780Z,89.80
2018-04-24T05:01:52.890Z,89.60
2018-04-24T05:04:19.065Z,89.30
2018-04-24T05:06:45.885Z,89.20
2018-04-24T05:09:11.967Z,89.20
2018-04-24T05:11:38.891Z,89.30
2018-04-24T05:14:04.981Z,89.30
2018-04-24T05:16:31.055Z,90.30
2018-04-24T05:18:57.135Z,89.70
2018-04-24T05:21:24.086Z,88.40
2018-04-24T05:23:50.893Z,88.60
2018-04-24T05:26:17.039Z,88.50
2018-04-24T05:28:43.125Z,89.30
2018-04-24T05:31:09.918Z,87.20
2018-04-24T05:33:36.008Z,87.00
2018-04-24T05:36:02.851Z,86.60
2018-04-24T05:38:29.007Z,86.70
2018-04-24T05:40:55.821Z,85.00
2018-04-24T05:43:21.917Z,85.00
2018-04-24T05:45:48.012Z,86.00
2018-04-24T05:48:14.139Z,84.90
2018-04-24T05:50:40.234Z,83.10
2018-04-24T05:53:06.321Z,81.50
2018-04-24T05:55:32.426Z,81.20
2018-04-24T05:57:58.623Z,80.30
2018-04-24T06:00:25.512Z,80.70
2018-04-24T06:02:51.620Z,80.70
2018-04-24T06:05:18.426Z,76.60
2018-04-24T06:07:44.499Z,76.70
2018-04-24T06:10:10.635Z,75.40
2018-04-24T06:12:36.717Z,74.00
2018-04-24T06:15:02.821Z,75.00
2018-04-24T06:17:28.989Z,75.00
2018-04-24T06:19:55.063Z,74.80
2018-04-24T06:22:21.168Z,76.10
2018-04-24T06:24:47.279Z,74.60
2018-04-24T06:27:14.155Z,76.40
2018-04-24T06:29:40.227Z,76.40
2018-04-24T06:32:06.397Z,76.20
2018-04-24T06:34:33.259Z,73.90
2018-04-24T06:37:00.091Z,71.60
2018-04-24T06:39:26.637Z,71.60
2018-04-24T06:41:52.917Z,70.80
2018-04-24T06:44:19.045Z,67.40
2018-04-24T06:46:45.893Z,64.20
2018-04-24T06:49:12.753Z,64.90
2018-04-24T06:51:39.600Z,63.80
2018-04-24T06:54:05.713Z,63.80
2018-04-24T06:56:31.948Z,62.20
2018-04-24T06:58:58.076Z,59.80
2018-04-24T07:01:24.296Z,58.70
2018-04-24T07:03:50.475Z,55.90
2018-04-24T07:06:16.570Z,52.70
2018-04-24T07:08:42.719Z,51.40
2018-04-24T07:13:36.786Z,45.30
2018-04-24T07:16:02.931Z,46.50
2018-04-24T07:18:29.830Z,47.20
2018-04-24T07:20:55.934Z,47.20
2018-04-24T07:23:22.819Z,45.00
2018-04-24T07:25:48.955Z,45.00
2018-04-24T07:28:15.066Z,43.90
2018-04-24T07:30:41.946Z,46.00
2018-04-24T07:33:08.076Z,46.00
2018-04-24T07:35:34.197Z,48.00
2018-04-24T07:38:01.049Z,46.60
2018-04-24T07:40:27.175Z,46.60
2018-04-24T07:42:53.290Z,47.00
2018-04-24T07:45:19.380Z,46.30
2018-04-24T07:47:46.243Z,43.50
2018-04-24T07:50:12.387Z,43.50
2018-04-24T07:52:38.550Z,42.40
2018-04-24T07:55:04.655Z,43.70
2018-04-24T07:57:31.453Z,45.20
2018-04-24T07:59:57.655Z,43.50
2018-04-24T08:02:23.780Z,43.20
2018-04-24T08:04:49.913Z,42.90
2018-04-24T08:07:16.725Z,42.30
2018-04-24T08:09:42.811Z,42.20
2018-04-24T08:12:09.740Z,42.40
2018-04-24T08:14:36.578Z,42.30
2018-04-24T08:17:02.750Z,41.70
2018-04-24T08:19:29.603Z,42.50
2018-04-24T08:21:56.490Z,42.80
2018-04-24T08:24:23.811Z,42.80
2018-04-24T08:26:49.909Z,42.50
2018-04-24T08:29:16.008Z,42.00
2018-04-24T08:31:43.003Z,42.00
2018-04-24T08:34:09.139Z,42.00
2018-04-24T08:36:35.276Z,42.60
2018-04-24T08:39:01.480Z,42.10
2018-04-24T08:41:27.546Z,41.70
2018-04-24T08:43:53.662Z,42.60
2018-04-24T08:46:20.549Z,40.60
2018-04-24T08:48:46.631Z,40.60
2018-04-24T08:51:13.352Z,40.90
2018-04-24T08:53:40.272Z,41.80
2018-04-24T08:56:08.368Z,41.60
2018-04-24T08:58:34.506Z,41.60
2018-04-24T09:01:00.614Z,39.40
2018-04-24T09:03:27.476Z,37.60
2018-04-24T09:05:54.391Z,37.30
2018-04-24T09:08:20.507Z,37.20
2018-04-24T09:10:46.572Z,37.60
2018-04-24T09:13:13.657Z,37.30
2018-04-24T09:15:39.777Z,38.90
2018-04-24T09:18:05.866Z,39.20
2018-04-24T09:20:32.022Z,38.60
2018-04-24T09:22:58.460Z,38.80
2018-04-24T09:25:24.538Z,36.50
2018-04-24T09:27:50.631Z,35.90
2018-04-24T09:30:16.785Z,34.30
2018-04-24T09:32:42.887Z,34.20
2018-04-24T09:35:09.722Z,33.20
2018-04-24T09:37:35.869Z,33.20
2018-04-24T09:40:02.652Z,33.90
2018-04-24T09:42:28.776Z,35.00
2018-04-24T09:44:54.883Z,36.30
2018-04-24T09:47:21.032Z,35.90
2018-04-24T09:49:47.128Z,37.60
2018-04-24T09:52:13.254Z,39.20
2018-04-24T09:54:39.399Z,39.00
2018-04-24T09:57:05.601Z,38.80
2018-04-24T09:59:32.469Z,35.90
2018-04-24T10:01:58.574Z,36.00
2018-04-24T10:04:24.686Z,36.00
2018-04-24T10:06:50.855Z,36.30
2018-04-24T10:09:17.721Z,35.00
2018-04-24T10:11:44.566Z,35.20
2018-04-24T10:14:10.748Z,35.20
2018-04-24T10:16:36.859Z,35.70
2018-04-24T10:19:03.742Z,37.60
2018-04-24T10:21:29.859Z,37.50
2018-04-24T10:23:56.681Z,38.30
2018-04-24T10:26:22.760Z,38.30
2018-04-24T10:28:48.898Z,38.70
2018-04-24T10:31:15.000Z,38.70
2018-04-24T10:33:41.089Z,38.30
2018-04-24T10:36:07.249Z,39.50
2018-04-24T10:38:33.445Z,40.10
2018-04-24T10:40:59.535Z,39.80
2018-04-24T10:43:25.648Z,40.30
2018-04-24T10:45:51.743Z,41.90
2018-04-24T10:48:18.586Z,40.90
2018-04-24T10:50:44.714Z,40.80
2018-04-24T10:53:10.803Z,41.40
2018-04-24T10:55:37.762Z,41.80
2018-04-24T10:58:04.142Z,41.20
2018-04-24T11:00:31.312Z,41.20
2018-04-24T11:02:57.391Z,41.10
2018-04-24T11:05:23.531Z,42.80
2018-04-24T11:07:49.739Z,43.80
2018-04-24T11:10:15.858Z,44.30
2018-04-24T11:12:41.968Z,44.60
2018-04-24T11:15:08.500Z,44.70
2018-04-24T11:17:34.598Z,46.10
2018-04-24T11:20:00.979Z,47.20
2018-04-24T11:22:27.081Z,47.80
2018-04-24T11:24:53.185Z,48.80
2018-04-24T11:27:19.315Z,52.40
2018-04-24T11:29:45.397Z,56.10
2018-04-24T11:32:12.142Z,57.40
2018-04-24T11:34:38.272Z,55.30
2018-04-24T11:37:04.386Z,52.40
2018-04-24T11:39:30.501Z,50.80
2018-04-24T11:41:56.666Z,49.60
2018-04-24T11:44:22.766Z,49.40
2018-04-24T11:46:48.843Z,49.80
2018-04-24T11:49:15.008Z,49.10
2018-04-24T11:51:41.112Z,49.40
2018-04-24T11:54:07.195Z,50.00
2018-04-24T11:56:33.542Z,49.20
2018-04-24T11:59:01.398Z,48.90
2018-04-24T12:01:27.595Z,48.80
2018-04-24T12:03:53.752Z,49.20
2018-04-24T12:06:19.883Z,49.50
2018-04-24T12:08:45.967Z,50.00
2018-04-24T12:11:12.095Z,49.80
2018-04-24T12:13:38.206Z,50.60
2018-04-24T12:16:04.632Z,50.80
2018-04-24T12:18:30.781Z,50.20
2018-04-24T12:20:57.212Z,49.20
2018-04-24T12:23:23.811Z,48.20
2018-04-24T12:25:49.906Z,48.30
2018-04-24T12:28:16.011Z,48.30
2018-04-24T12:30:42.882Z,50.10
2018-04-24T12:33:08.956Z,50.10
2018-04-24T12:35:35.464Z,50.70
2018-04-24T12:38:01.569Z,50.00
2018-04-24T12:40:27.700Z,49.20
2018-04-24T12:42:53.803Z,50.30
2018-04-24T12:45:19.978Z,50.20
2018-04-24T12:47:46.046Z,49.80
2018-04-24T12:50:12.857Z,50.90
2018-04-24T12:52:39.022Z,50.90
2018-04-24T12:55:05.163Z,52.30
2018-04-24T12:57:31.988Z,56.20
2018-04-24T12:59:58.154Z,55.20
2018-04-24T13:02:24.992Z,54.70
2018-04-24T13:04:51.083Z,54.70
2018-04-24T13:07:17.204Z,54.80
2018-04-24T13:09:44.082Z,57.30
2018-04-24T13:12:10.963Z,59.50
2018-04-24T13:14:37.108Z,59.50
2018-04-24T13:17:03.248Z,58.80
2018-04-24T13:19:29.359Z,59.60
2018-04-24T13:21:55.495Z,59.20
2018-04-24T13:24:21.592Z,62.10
2018-04-24T13:26:48.452Z,69.80
2018-04-24T13:29:15.324Z,77.30
2018-04-24T13:31:42.163Z,79.20
2018-04-24T13:34:09.027Z,81.60
2018-04-24T13:36:35.889Z,85.30
2018-04-24T13:39:02.767Z,84.60
2018-04-24T13:41:28.896Z,83.20
2018-04-24T13:43:55.004Z,86.90
2018-04-24T13:46:21.871Z,87.50
2018-04-24T13:48:48.792Z,87.20
2018-04-24T13:51:15.534Z,91.40
2018-04-24T13:53:42.046Z,91.40
2018-04-24T13:56:08.170Z,91.10
2018-04-24T13:58:34.292Z,89.90
2018-04-24T14:01:00.730Z,92.70
2018-04-24T14:03:27.715Z,91.70
2018-04-24T14:05:53.820Z,91.20
2018-04-24T14:08:19.931Z,88.50
2018-04-24T14:10:46.042Z,87.00
2018-04-24T14:13:12.186Z,93.80
2018-04-24T14:15:38.286Z,86.60
2018-04-24T14:18:05.179Z,78.20
2018-04-24T14:20:31.281Z,78.30
2018-04-24T14:22:57.707Z,82.70
2018-04-24T14:25:25.133Z,81.20
2018-04-24T14:27:51.222Z,81.30
2018-04-24T14:30:17.347Z,76.20
2018-04-24T14:32:43.507Z,76.80
2018-04-24T14:35:09.595Z,71.50
2018-04-24T14:37:35.734Z,70.70
2018-04-24T14:40:01.866Z,68.70
2018-04-24T14:42:29.201Z,65.50
2018-04-24T14:44:56.039Z,62.50
2018-04-24T14:47:22.215Z,62.50
2018-04-24T14:49:48.320Z,64.90
2018-04-24T14:52:15.247Z,64.90
2018-04-24T14:54:41.348Z,64.70
2018-04-24T14:57:07.468Z,64.30
2018-04-24T14:59:34.338Z,64.90
2018-04-24T15:02:00.478Z,65.00
2018-04-24T15:04:27.243Z,64.70
2018-04-24T15:06:53.348Z,66.40
2018-04-24T15:09:20.214Z,66.40
2018-04-24T15:11:46.317Z,66.40
2018-04-24T15:14:12.435Z,66.20
2018-04-24T15:16:38.599Z,67.50
2018-04-24T15:19:05.448Z,70.90
2018-04-24T15:21:31.601Z,70.90
2018-04-24T15:23:58.442Z,71.60
2018-04-24T15:26:24.533Z,71.50
2018-04-24T15:28:50.939Z,71.70
2018-04-24T15:31:17.057Z,72.70
2018-04-24T15:33:43.235Z,73.40
2018-04-24T15:36:10.108Z,74.80
2018-04-24T15:38:36.269Z,74.80
2018-04-24T15:41:02.428Z,75.30
2018-04-24T15:43:29.577Z,74.70
2018-04-24T15:45:55.715Z,75.40
2018-04-24T15:48:21.819Z,75.70
2018-04-24T15:50:47.903Z,76.10
2018-04-24T15:53:14.040Z,77.00
2018-04-24T15:55:40.139Z,76.10
2018-04-24T15:58:06.251Z,76.40
2018-04-24T16:00:32.351Z,78.20
2018-04-24T16:02:58.572Z,76.80
2018-04-24T16:05:24.595Z,75.90
2018-04-24T16:07:50.700Z,75.70
2018-04-24T16:10:16.857Z,76.40
2018-04-24T16:12:42.987Z,76.40
2018-04-24T16:15:09.217Z,75.60
2018-04-24T16:17:36.088Z,74.40
2018-04-24T16:20:02.225Z,74.40
2018-04-24T16:22:28.337Z,74.80
2018-04-24T16:24:55.268Z,72.50
2018-04-24T16:27:21.428Z,72.40
2018-04-24T16:29:47.597Z,71.50
2018-04-24T16:32:13.671Z,70.10
2018-04-24T16:34:39.831Z,71.40
2018-04-24T16:37:06.055Z,72.20
2018-04-24T16:39:32.166Z,71.40
2018-04-24T16:41:58.287Z,70.50
2018-04-24T16:44:24.952Z,70.80
2018-04-24T16:46:51.057Z,71.80
2018-04-24T16:49:17.944Z,72.50
2018-04-24T16:51:44.106Z,72.40
2018-04-24T16:54:10.264Z,71.30
2018-04-24T16:56:36.443Z,72.80
2018-04-24T16:59:03.578Z,70.50
2018-04-24T17:01:29.771Z,70.70
2018-04-24T17:03:55.909Z,70.30
2018-04-24T17:06:22.114Z,70.10
2018-04-24T17:08:48.210Z,70.30
2018-04-24T17:14:08.154Z,73.10
2018-04-24T17:16:34.411Z,72.40
2018-04-24T17:19:00.583Z,72.00
2018-04-24T17:21:26.764Z,71.60
2018-04-24T17:23:52.878Z,73.90
2018-04-24T17:26:19.006Z,73.90
2018-04-24T17:28:45.195Z,74.60
2018-04-24T17:31:11.278Z,74.60
2018-04-24T17:33:37.495Z,74.90
2018-04-24T17:36:03.647Z,75.60
2018-04-24T17:38:30.191Z,75.30
2018-04-24T17:40:56.410Z,75.00
2018-04-24T17:43:22.537Z,76.40
2018-04-24T17:45:48.639Z,76.20
2018-04-24T17:48:14.910Z,77.20
2018-04-24T17:50:41.405Z,76.90
2018-04-24T17:53:07.839Z,77.90
2018-04-24T17:55:35.290Z,78.60
2018-04-24T17:58:02.255Z,79.70
2018-04-24T18:00:29.091Z,80.70
2018-04-24T18:02:55.207Z,80.70
2018-04-24T18:05:21.269Z,81.00
2018-04-24T18:07:47.461Z,80.90
2018-04-24T18:10:13.592Z,81.70
2018-04-24T18:12:39.688Z,82.60
2018-04-24T18:15:06.081Z,83.50
2018-04-24T18:17:32.977Z,83.80
2018-04-24T18:19:59.122Z,84.60
2018-04-24T18:22:25.243Z,84.80
2018-04-24T18:24:51.356Z,85.20
2018-04-24T18:27:17.661Z,85.20
2018-04-24T18:29:44.635Z,85.20
2018-04-24T18:32:10.828Z,85.40
2018-04-24T18:34:37.129Z,85.50
2018-04-24T18:37:03.937Z,86.40
2018-04-24T18:39:30.076Z,85.60
2018-04-24T18:41:56.228Z,85.70
2018-04-24T18:44:22.376Z,87.00
2018-04-24T18:46:49.282Z,88.00
2018-04-24T18:49:15.544Z,88.00
2018-04-24T18:51:41.658Z,88.70
2018-04-24T18:54:07.888Z,89.80
2018-04-24T18:56:35.816Z,90.20
2018-04-24T18:59:02.367Z,90.50
2018-04-24T19:01:29.349Z,90.00
2018-04-24T19:03:55.439Z,90.00
2018-04-24T19:06:21.559Z,90.60
2018-04-24T19:08:47.642Z,90.60
2018-04-24T19:11:13.745Z,89.60
2018-04-24T19:13:39.874Z,88.70
2018-04-24T19:16:06.010Z,88.90
2018-04-24T19:18:38.626Z,89.00
2018-04-24T19:21:04.731Z,89.70
2018-04-24T19:23:31.218Z,90.40
2018-04-24T19:25:57.479Z,90.60
2018-04-24T19:28:23.731Z,89.50
2018-04-24T19:30:50.615Z,85.70
2018-04-24T19:33:18.273Z,86.50
2018-04-24T19:35:44.834Z,85.70
2018-04-24T19:38:11.111Z,85.40
2018-04-24T19:40:43.512Z,85.80
2018-04-24T19:43:09.880Z,86.10
2018-04-24T19:45:36.069Z,85.60
2018-04-24T19:48:02.309Z,84.20
2018-04-24T19:50:30.387Z,84.40
2018-04-24T19:52:57.464Z,84.20
2018-04-24T19:55:29.061Z,84.40
2018-04-24T19:57:56.000Z,84.10
2018-04-24T20:00:22.769Z,84.20
2018-04-24T20:02:50.300Z,85.10
2018-04-24T20:05:18.600Z,84.90
2018-04-24T20:07:46.911Z,84.70
2018-04-24T20:10:14.223Z,85.70
2018-04-24T20:12:42.005Z,85.80
2018-04-24T20:15:08.823Z,85.60
2018-04-24T20:17:34.986Z,85.80
2018-04-24T20:20:01.214Z,85.50
2018-04-24T20:22:29.622Z,85.90
2018-04-24T20:24:56.945Z,85.90
2018-04-24T20:27:23.691Z,86.60
2018-04-24T20:29:51.789Z,88.50
2018-04-24T20:32:21.169Z,88.50
2018-04-24T20:34:48.052Z,88.40
2018-04-24T20:37:16.432Z,87.50
2018-04-24T20:39:43.695Z,88.20
2018-04-24T20:42:11.578Z,89.80
2018-04-24T20:44:37.888Z,89.80
2018-04-24T20:47:04.938Z,90.30
2018-04-24T20:49:31.035Z,90.70
2018-04-24T20:51:58.202Z,90.70
2018-04-24T20:54:26.072Z,88.40
2018-04-24T20:56:52.655Z,89.60
2018-04-24T20:59:18.735Z,89.20
2018-04-24T21:01:44.887Z,89.90
2018-04-24T21:04:10.995Z,89.80
2018-04-24T21:06:37.117Z,89.60
2018-04-24T21:09:03.311Z,89.60
2018-04-24T21:11:30.097Z,89.30
2018-04-24T21:13:56.203Z,89.90
2018-04-24T21:16:22.351Z,89.60
2018-04-24T21:18:48.466Z,89.50
2018-04-24T21:21:14.668Z,90.80
2018-04-24T21:23:40.850Z,91.80
2018-04-24T21:26:06.994Z,91.20
2018-04-24T21:28:33.111Z,90.80
2018-04-24T21:30:59.195Z,91.20
2018-04-24T21:33:26.027Z,89.70
2018-04-24T21:35:52.138Z,89.80
2018-04-24T21:38:18.210Z,90.70
2018-04-24T21:40:45.034Z,91.20
2018-04-24T21:43:11.181Z,90.70
2018-04-24T21:45:37.297Z,91.10
2018-04-24T21:48:03.480Z,91.10
2018-04-24T21:50:30.332Z,86.70
2018-04-24T21:52:56.504Z,86.80
2018-04-24T21:55:22.578Z,86.40
2018-04-24T21:57:48.747Z,85.80
2018-04-24T22:00:14.852Z,85.20
2018-04-24T22:02:40.957Z,85.90
2018-04-24T22:05:07.272Z,85.60
2018-04-24T22:07:34.194Z,85.70
2018-04-24T22:10:00.288Z,85.70
2018-04-24T22:12:27.050Z,85.30
2018-04-24T22:14:53.143Z,85.30
2018-04-24T22:17:19.961Z,85.00
2018-04-24T22:19:46.087Z,85.00
2018-04-24T22:22:12.161Z,85.50
2018-04-24T22:24:38.268Z,86.40
2018-04-24T22:27:04.425Z,86.40
2018-04-24T22:29:30.540Z,85.80
2018-04-24T22:31:58.751Z,85.60
2018-04-24T22:34:25.122Z,86.20
2018-04-24T22:36:51.194Z,85.30
2018-04-24T22:39:17.317Z,87.50
2018-04-24T22:41:44.212Z,87.80
2018-04-24T22:44:10.299Z,87.80
2018-04-24T22:46:37.195Z,88.90
2018-04-24T22:49:03.335Z,88.90
2018-04-24T22:51:29.435Z,89.20
2018-04-24T22:53:56.314Z,89.30
2018-04-24T22:56:22.433Z,89.30
2018-04-24T22:58:49.282Z,89.60
2018-04-24T23:01:16.171Z,91.90
2018-04-24T23:03:42.278Z,91.90
2018-04-24T23:06:09.094Z,97.80
2018-04-24T23:08:35.224Z,97.90
2018-04-24T23:11:13.655Z,98.70
2018-04-24T23:13:52.061Z,99.20
2018-04-24T23:16:30.985Z,99.90
2018-04-24T23:19:09.407Z,99.90
2018-04-24T23:21:35.494Z,99.90
2018-04-24T23:24:01.712Z,99.90
2018-04-24T23:26:27.830Z,99.90
2018-04-24T23:28:54.014Z,99.90
2018-04-24T23:31:20.137Z,99.90
2018-04-24T23:33:46.622Z,99.90
2018-04-24T23:36:12.957Z,99.90
2018-04-24T23:38:39.463Z,99.90
2018-04-24T23:41:05.600Z,99.90
2018-04-24T23:43:32.178Z,99.90
2018-04-24T23:45:58.409Z,99.90
2018-04-24T23:48:24.507Z,99.90
2018-04-24T23:50:50.823Z,99.90
2018-04-24T23:53:17.648Z,99.90
2018-04-24T23:55:43.770Z,99.90
2018-04-24T23:58:09.904Z,99.90
